View Sortable Currents For Network
ASOSAWOSCoCoRaHSCOOPDCPISUSM
SchoolNetOtherSCANMy FavoritesBy StateRWIS
RWIS SurfaceRWIS TrafficRWIS SoilBy NWS WFO

Current AWOS Conditions

** This page will automatically refresh every five minutes.
Sorted by: (Today's High Temperature)     Click on a column to sort it.

Add ID: Name: Ob Time   Wind [knots]   Rainfall
Temp (Hi / Lo) DewP Feels RH% Dir Speed Peak Gust
@ Time
Alti Vsby Hour Today
ORCOrange City12:55 AM 70(72/70) 61 73 0 00 @ 06:00 PM 30.11 10 0
MUTMUSCATINE12:55 AM 70(72/70) 64 81 0 00 @ 06:00 PM 30.09 10 0
OXVKnoxville12:55 AM 72(72/72) 61 68 0 00 @ 06:00 PM 30.07 10 0
TNUNEWTON MUNI12:55 AM 68(72/68) 64 69 87 70 34 @ 12:15 AM 30.09 10 0
VTIVINTON12:55 AM 68(71/68) 64 87 0 04 @ 12:15 AM 30.1 10 0
BNWBOONE MUNI12:55 AM 70(70/68) 61 73 0 00 @ 06:00 PM 30.09 10 0
EOKKEOKUK MUNI12:55 AM 68(70/68) 66 93 0 00 @ 06:00 PM 30.07 10 0
CNCCHARITON12:55 AM 70(70/70) 64 71 81 120 44 @ 12:15 AM 30.09 10 0
AXAALGONA12:55 AM 70(70/70) 63 71 78 90 68 @ 12:15 AM 30.11 10 0
IFAIowa Falls12:55 AM 67(70/67) 64 90 0 00 @ 06:00 PM 30.12 10 0
GGIGrinnell12:55 AM 69(69/67) 61 69 76 80 44 @ 12:55 AM 30.1 10 0
I75Osceola12:35 AM 68(68/68) 64 69 87 100 33 @ 12:15 AM 30.09 10 0
FXYForest City12:35 AM 68(68/68) 61 68 78 100 44 @ 12:15 AM 30.12 10 0
AWGWASHINGTON12:55 AM 66(68/66) 66 68 100 70 45 @ 12:15 AM 30.09 10 0
TVKCenterville12:35 AM 68(68/68) 66 93 0 00 @ 06:00 PM 30.1 10 0
SLBStorm Lake12:55 AM 66(68/66) 59 66 78 170 33 @ 12:35 AM 30.11 10 0
CBFCOUNCIL BLUFFS12:55 AM 68(68/68) 66 93 0 00 @ 06:00 PM 30.1 10 0
PEAPELLA12:55 AM 67(67/67) 63 87 0 00 @ 06:00 PM 30.09 10 0
IIBINDEPENDENCE12:55 AM 66(66/66) 60 81 0 04 @ 12:15 AM 30.11 10 0
FFLFAIRFIELD12:55 AM 66(66/66) 63 90 0 00 @ 06:00 PM 30.08 10 0
EBSWebster City12:35 AM 66(66/66) 63 67 90 60 35 @ 12:15 AM 30.08 10 0
RDKRED OAK12:55 AM 64(66/64) 64 100 0 03 @ 12:35 AM 30.08 10 0
CSQCRESTON12:55 AM 66(66/66) 64 67 93 80 56 @ 12:15 AM 30.1 10 0
SDASHENANDOAH MUNI12:55 AM 66(66/64) 64 93 0 00 @ 06:00 PM 30.09 10 0
CAVCLARION12:55 AM 66(66/66) 63 67 90 90 66 @ 12:55 AM 30.11 10 0
PROPerry12:35 AM 66(66/66) 65 97 0 00 @ 06:00 PM 30.09 10 0
IKVANKENY12:55 AM 64(66/64) 63 97 0 00 @ 06:00 PM 30.1 10 0
CCYCHARLES CITY12:55 AM 64(66/64) 59 64 84 70 55 @ 12:35 AM 30.12 10 0
FODFORT DODGE12:56 AM 66(66/66) 63 67 90 10 33 @ 12:56 AM 30.1 10 0
OOAOskaloosa12:35 AM 66(66/66) 64 67 93 50 45 @ 12:15 AM 30.09 10 0
CWICLINTON12:56 AM 65(65/65) 61 66 87 90 46 @ 12:00 AM 30.11 10 0
CKPCherokee12:55 AM 64(65/64) 63 97 0 00 @ 06:00 PM 30.1 10 0
MPZMOUNT PLEASANT12:35 AM 64(64/64) 63 97 0 04 @ 12:15 AM 30.08 10 0
AIOATLANTIC12:55 AM 63(64/63) 63 64 100 360 55 @ 12:55 AM 30.09 10 0
HPTHampton12:35 AM 64(64/64) 64 66 100 50 55 @ 12:35 AM 30.11 10 0
DNSDENISON12:55 AM 64(64/64) 64 66 100 100 33 @ 12:55 AM 30.11 10 0
ICLCLARINDA12:55 AM 64(64/64) 64 100 0 00 @ 06:00 PM 30.1 2.5 0
MXOMONTICELLO MUNI12:55 AM 63(64/63) 63 100 0 00 @ 06:00 PM 30.1 10 0
LRJLE MARS12:55 AM 63(64/63) 63 100 0 00 @ 06:00 PM 30.09 10 0
FSWFORT MADISON12:55 AM 64(64/64) 64 100 0 00 @ 06:00 PM 30.08 10 0
SHLSHELDON12:55 AM 64(64/64) 64 66 100 100 33 @ 12:55 AM 30.09 10 0
OLZOELWEIN12:55 AM 64(64/64) 61 65 90 60 55 @ 12:35 AM 30.12 10 0
HNRHARLAN12:55 AM 61(63/61) 61 100 0 03 @ 12:35 AM 30.1 10 0
CINCARROLL12:55 AM 61(63/61) 61 100 0 00 @ 06:00 PM 30.09 10 0
DEHDECORAH12:55 AM 63(63/63) 61 93 0 00 @ 06:00 PM 30.11 10 0
ADUAUDUBON12:55 AM 61(63/61) 57 87 0 00 @ 06:00 PM 30.11 10 0